TimeCDT,TemperatureF,Dew PointF,Humidity,Sea Level PressureIn,VisibilityMPH,Wind Direction,Wind SpeedMPH,Gust SpeedMPH,PrecipitationIn,Events,Conditions,WindDirDegrees,DateUTC
12:53 AM,34.0,27.0,75,30.25,10.0,ENE,3.5,-,N/A,,Clear,60,2012-10-30 05:53:00
2:53 AM,33.1,24.1,70,30.25,10.0,NE,6.9,-,N/A,,Clear,50,2012-10-30 07:53:00
3:53 AM,33.1,24.1,70,30.23,10.0,NE,5.8,-,N/A,,Clear,50,2012-10-30 08:53:00
4:53 AM,33.1,24.1,70,30.23,10.0,NNE,4.6,-,N/A,,Clear,30,2012-10-30 09:53:00
6:53 AM,30.0,23.0,75,30.23,10.0,NE,6.9,-,N/A,,Clear,50,2012-10-30 11:53:00
7:53 AM,30.9,24.1,76,30.23,10.0,NNE,3.5,-,N/A,,Clear,30,2012-10-30 12:53:00
8:53 AM,34.0,25.0,70,30.23,10.0,NNE,3.5,-,N/A,,Clear,20,2012-10-30 13:53:00
9:53 AM,37.9,27.0,65,30.23,10.0,ENE,6.9,-,N/A,,Clear,60,2012-10-30 14:53:00
10:53 AM,42.1,28.9,60,30.22,10.0,East,8.1,-,N/A,,Clear,80,2012-10-30 15:53:00
11:53 AM,45.0,28.9,53,30.19,10.0,NNE,9.2,-,N/A,,Clear,30,2012-10-30 16:53:00
12:53 PM,45.0,28.0,52,30.17,10.0,NE,6.9,-,N/A,,Clear,50,2012-10-30 17:53:00
1:53 PM,46.0,28.9,51,30.14,10.0,North,8.1,-,N/A,,Mostly Cloudy,350,2012-10-30 18:53:00
2:53 PM,48.9,28.9,46,30.12,10.0,NNW,9.2,-,N/A,,Clear,330,2012-10-30 19:53:00
3:53 PM,51.1,27.0,39,30.10,10.0,NNE,9.2,17.3,N/A,,Clear,30,2012-10-30 20:53:00
4:53 PM,48.9,27.0,43,30.09,10.0,North,10.4,-,N/A,,Scattered Clouds,10,2012-10-30 21:53:00
5:53 PM,46.9,26.1,44,30.10,10.0,North,9.2,-,N/A,,Mostly Cloudy,10,2012-10-30 22:53:00
6:53 PM,44.1,21.0,40,30.10,10.0,North,9.2,-,N/A,,Clear,10,2012-10-30 23:53:00
7:53 PM,42.1,18.0,38,30.10,10.0,North,8.1,-,N/A,,Clear,10,2012-10-31 00:53:00
8:53 PM,39.0,16.0,39,30.11,10.0,North,6.9,-,N/A,,Clear,10,2012-10-31 01:53:00
9:53 PM,37.9,12.0,35,30.11,10.0,NE,8.1,-,N/A,,Clear,40,2012-10-31 02:53:00
10:53 PM,36.0,12.9,39,30.09,10.0,NE,4.6,-,N/A,,Clear,40,2012-10-31 03:53:00
11:53 PM,33.1,14.0,46,30.08,10.0,NNE,4.6,-,N/A,,Clear,20,2012-10-31 04:53:00